URMM

Mineralnyye Vody Airport

Mineralnyye Vody, Russian Federation
TAF URMM 231058Z 2312/2412 07003G08MPS 9999 BKN030CB TX29/2412Z TN18/2402Z TEMPO 2312/2321 VRB07G18MPS 1000 TSRAGR SQ BKN011 BKN030CB TEMPO 2321/2405 3100 BR BKN011
Issued Valid From Valid To
Jul-23 @ 10:58 UTC
(3 hours ago)
Jul-23 @ 12:00 UTC
(2 hours ago)
Jul-24 @ 12:00 UTC
(in 22 hours)
Jul-23 @ 12:00 to Jul-24 @ 12:00
TAF URMM 231058Z 2312/2412 07003G08MPS 9999 BKN030CB TX29/2412Z TN18/2402Z
Wind Visibility Clouds
70° at 6 knots
 Gusting to 16 knots
10,000+ meters
  • Broken at 3,000' AGL
Temporary Jul-23 @ 12:00 to Jul-23 @ 21:00
TEMPO 2312/2321 VRB07G18MPS 1000 TSRAGR SQ BKN011 BKN030CB
Wind Visibility Clouds Conditions
Variable at 14 knots
 Gusting to 35 knots
998 meters
  • Broken at 1,100' AGL
  • Broken at 3,000' AGL
  • Thunderstorm
  • Rain
  • Thunderstorm
  • Hail
  • Squalls
Temporary Jul-23 @ 21:00 to Jul-24 @ 05:00
TEMPO 2321/2405 3100 BR BKN011
Visibility Clouds Conditions
3,106 meters
  • Broken at 1,100' AGL
  • Mist
TAF URMM 231058Z 2312/2412 07003G08MPS 9999 BKN030CB TX29/2412Z TN18/2402Z TEMPO 2312/2321 VRB07G18MPS 1000 TSRAGR SQ BKN011 BKN030CB TEMPO 2321/2405 3100 BR BKN011
Issued Jul-23 @ 10:58 UTC
(3 hours ago)
Valid From Jul-23 @ 12:00 UTC
(2 hours ago)
Valid To Jul-24 @ 12:00 UTC
(in 22 hours)
Jul-23 @ 12:00 - Jul-24 @ 12:00
Wind Visibility
70° at 6 knots
 Gusting to 16 knots
10,000+ meters
Clouds
  • Broken at 3,000' AGL
Temporary Jul-23 @ 12:00 - Jul-23 @ 21:00
Wind Visibility
Variable at 14 knots
 Gusting to 35 knots
998 meters
Clouds
  • Broken at 1,100' AGL
  • Broken at 3,000' AGL
Conditions
  • Thunderstorm
  • Rain
  • Thunderstorm
  • Hail
  • Squalls
Temporary Jul-23 @ 21:00 - Jul-24 @ 05:00
Clouds
  • Broken at 1,100' AGL
Conditions
  • Mist